sensor_id;sensor_type;location;lat;lon;timestamp;temperature;humidity
20712;DHT22;10517;50.742;4.224;2022-09-27T00:00:30;10.10;99.90
20712;DHT22;10517;50.742;4.224;2022-09-27T00:02:56;10.20;99.90
20712;DHT22;10517;50.742;4.224;2022-09-27T00:05:21;10.20;99.90
20712;DHT22;10517;50.742;4.224;2022-09-27T00:07:47;10.30;99.90
20712;DHT22;10517;50.742;4.224;2022-09-27T00:10:13;10.30;99.90
20712;DHT22;10517;50.742;4.224;2022-09-27T00:12:39;10.30;99.90
20712;DHT22;10517;50.742;4.224;2022-09-27T00:15:06;10.30;99.90
20712;DHT22;10517;50.742;4.224;2022-09-27T00:17:32;10.30;99.90
20712;DHT22;10517;50.742;4.224;2022-09-27T00:19:58;10.40;99.90
20712;DHT22;10517;50.742;4.224;2022-09-27T00:22:24;10.30;99.90
20712;DHT22;10517;50.742;4.224;2022-09-27T00:24:50;10.20;99.90
20712;DHT22;10517;50.742;4.224;2022-09-27T00:27:17;10.20;99.90
20712;DHT22;10517;50.742;4.224;2022-09-27T00:29:43;10.20;99.90
20712;DHT22;10517;50.742;4.224;2022-09-27T00:32:09;10.10;99.90
20712;DHT22;10517;50.742;4.224;2022-09-27T00:34:35;10.10;99.90
20712;DHT22;10517;50.742;4.224;2022-09-27T00:37:00;10.20;99.90
20712;DHT22;10517;50.742;4.224;2022-09-27T00:39:26;10.20;99.90
20712;DHT22;10517;50.742;4.224;2022-09-27T00:41:52;10.30;99.90
20712;DHT22;10517;50.742;4.224;2022-09-27T00:52:10;10.30;99.90
20712;DHT22;10517;50.742;4.224;2022-09-27T00:54:40;10.40;99.90
20712;DHT22;10517;50.742;4.224;2022-09-27T00:57:07;10.40;99.90
20712;DHT22;10517;50.742;4.224;2022-09-27T00:59:37;10.40;99.90
20712;DHT22;10517;50.742;4.224;2022-09-27T01:02:05;10.40;99.90
20712;DHT22;10517;50.742;4.224;2022-09-27T01:04:32;10.30;99.90
20712;DHT22;10517;50.742;4.224;2022-09-27T01:06:58;10.20;99.90
20712;DHT22;10517;50.742;4.224;2022-09-27T01:09:24;10.30;99.90
20712;DHT22;10517;50.742;4.224;2022-09-27T01:12:04;10.30;99.90
20712;DHT22;10517;50.742;4.224;2022-09-27T01:17:48;10.20;99.90
20712;DHT22;10517;50.742;4.224;2022-09-27T01:29:21;10.10;99.90
20712;DHT22;10517;50.742;4.224;2022-09-27T01:32:11;10.00;99.90
20712;DHT22;10517;50.742;4.224;2022-09-27T01:40:34;9.90;99.90
20712;DHT22;10517;50.742;4.224;2022-09-27T01:45:50;10.00;99.90
20712;DHT22;10517;50.742;4.224;2022-09-27T01:48:23;10.00;99.90
20712;DHT22;10517;50.742;4.224;2022-09-27T01:53:36;9.90;99.90
20712;DHT22;10517;50.742;4.224;2022-09-27T01:56:05;9.90;99.90
20712;DHT22;10517;50.742;4.224;2022-09-27T02:01:21;9.80;99.90
20712;DHT22;10517;50.742;4.224;2022-09-27T02:03:50;10.00;99.90
20712;DHT22;10517;50.742;4.224;2022-09-27T02:06:29;9.90;99.90
20712;DHT22;10517;50.742;4.224;2022-09-27T02:09:08;9.90;99.90
20712;DHT22;10517;50.742;4.224;2022-09-27T02:11:40;9.90;99.90
20712;DHT22;10517;50.742;4.224;2022-09-27T02:14:16;10.00;99.90
20712;DHT22;10517;50.742;4.224;2022-09-27T02:16:54;10.00;99.90
20712;DHT22;10517;50.742;4.224;2022-09-27T02:24:59;10.20;99.90
20712;DHT22;10517;50.742;4.224;2022-09-27T02:27:37;10.20;99.90
20712;DHT22;10517;50.742;4.224;2022-09-27T02:30:06;10.20;99.90
20712;DHT22;10517;50.742;4.224;2022-09-27T02:32:33;10.20;99.90
20712;DHT22;10517;50.742;4.224;2022-09-27T02:35:03;10.10;99.90
20712;DHT22;10517;50.742;4.224;2022-09-27T02:37:30;9.90;99.90
20712;DHT22;10517;50.742;4.224;2022-09-27T02:39:57;9.80;99.90
20712;DHT22;10517;50.742;4.224;2022-09-27T02:42:23;9.80;99.90
20712;DHT22;10517;50.742;4.224;2022-09-27T02:44:50;9.70;99.90
20712;DHT22;10517;50.742;4.224;2022-09-27T02:59:19;10.00;99.90
20712;DHT22;10517;50.742;4.224;2022-09-27T03:02:01;10.20;99.90
20712;DHT22;10517;50.742;4.224;2022-09-27T03:07:01;10.30;99.90
20712;DHT22;10517;50.742;4.224;2022-09-27T03:09:29;10.30;99.90
20712;DHT22;10517;50.742;4.224;2022-09-27T03:11:54;10.30;99.90
20712;DHT22;10517;50.742;4.224;2022-09-27T03:14:20;10.40;99.90
20712;DHT22;10517;50.742;4.224;2022-09-27T03:16:46;10.40;99.90
20712;DHT22;10517;50.742;4.224;2022-09-27T03:19:11;10.50;99.90
20712;DHT22;10517;50.742;4.224;2022-09-27T03:21:37;10.40;99.90
20712;DHT22;10517;50.742;4.224;2022-09-27T03:24:03;10.30;99.90
20712;DHT22;10517;50.742;4.224;2022-09-27T03:26:29;10.30;99.90
20712;DHT22;10517;50.742;4.224;2022-09-27T03:28:54;10.20;99.90
20712;DHT22;10517;50.742;4.224;2022-09-27T03:31:20;10.10;99.90
20712;DHT22;10517;50.742;4.224;2022-09-27T03:33:46;10.10;99.90
20712;DHT22;10517;50.742;4.224;2022-09-27T03:36:12;10.10;99.90
20712;DHT22;10517;50.742;4.224;2022-09-27T03:38:37;10.20;99.90
20712;DHT22;10517;50.742;4.224;2022-09-27T03:41:03;10.20;99.90
20712;DHT22;10517;50.742;4.224;2022-09-27T03:43:29;10.20;99.90
20712;DHT22;10517;50.742;4.224;2022-09-27T03:45:55;10.30;99.90
20712;DHT22;10517;50.742;4.224;2022-09-27T03:48:20;10.40;99.90
20712;DHT22;10517;50.742;4.224;2022-09-27T03:50:46;10.50;99.90
20712;DHT22;10517;50.742;4.224;2022-09-27T03:53:11;10.50;99.90
20712;DHT22;10517;50.742;4.224;2022-09-27T03:55:37;10.50;99.90
20712;DHT22;10517;50.742;4.224;2022-09-27T03:58:03;10.50;99.90
20712;DHT22;10517;50.742;4.224;2022-09-27T04:00:29;10.60;99.90
20712;DHT22;10517;50.742;4.224;2022-09-27T04:02:57;10.60;99.90
20712;DHT22;10517;50.742;4.224;2022-09-27T04:05:27;10.60;99.90
20712;DHT22;10517;50.742;4.224;2022-09-27T04:07:53;10.60;99.90
20712;DHT22;10517;50.742;4.224;2022-09-27T04:10:19;10.50;99.90
20712;DHT22;10517;50.742;4.224;2022-09-27T04:12:46;10.50;99.90
20712;DHT22;10517;50.742;4.224;2022-09-27T04:15:11;10.50;99.90
20712;DHT22;10517;50.742;4.224;2022-09-27T04:17:40;10.50;99.90
20712;DHT22;10517;50.742;4.224;2022-09-27T04:20:06;10.50;99.90
20712;DHT22;10517;50.742;4.224;2022-09-27T04:22:32;10.60;99.90
20712;DHT22;10517;50.742;4.224;2022-09-27T04:24:57;10.50;99.90
20712;DHT22;10517;50.742;4.224;2022-09-27T04:27:23;10.40;99.90
20712;DHT22;10517;50.742;4.224;2022-09-27T04:29:48;10.20;99.90
20712;DHT22;10517;50.742;4.224;2022-09-27T04:32:14;10.10;99.90
20712;DHT22;10517;50.742;4.224;2022-09-27T04:34:40;10.10;99.90
20712;DHT22;10517;50.742;4.224;2022-09-27T04:37:24;10.20;99.90
20712;DHT22;10517;50.742;4.224;2022-09-27T04:39:50;10.10;99.90
20712;DHT22;10517;50.742;4.224;2022-09-27T04:42:16;10.20;99.90
20712;DHT22;10517;50.742;4.224;2022-09-27T04:44:42;10.20;99.90
20712;DHT22;10517;50.742;4.224;2022-09-27T04:47:08;10.30;99.90
20712;DHT22;10517;50.742;4.224;2022-09-27T04:49:33;10.30;99.90
20712;DHT22;10517;50.742;4.224;2022-09-27T04:51:59;10.30;99.90
20712;DHT22;10517;50.742;4.224;2022-09-27T04:54:25;10.30;99.90
20712;DHT22;10517;50.742;4.224;2022-09-27T04:56:51;10.30;99.90
20712;DHT22;10517;50.742;4.224;2022-09-27T04:59:16;10.30;99.90
20712;DHT22;10517;50.742;4.224;2022-09-27T05:01:42;10.30;99.90
20712;DHT22;10517;50.742;4.224;2022-09-27T05:04:07;10.30;99.90
20712;DHT22;10517;50.742;4.224;2022-09-27T05:06:33;10.20;99.90
20712;DHT22;10517;50.742;4.224;2022-09-27T05:08:59;10.10;99.90
20712;DHT22;10517;50.742;4.224;2022-09-27T05:11:25;10.20;99.90
20712;DHT22;10517;50.742;4.224;2022-09-27T05:13:51;10.20;99.90
20712;DHT22;10517;50.742;4.224;2022-09-27T05:16:16;10.20;99.90
20712;DHT22;10517;50.742;4.224;2022-09-27T05:18:42;10.20;99.90
20712;DHT22;10517;50.742;4.224;2022-09-27T05:21:08;10.20;99.90
20712;DHT22;10517;50.742;4.224;2022-09-27T05:23:33;10.20;99.90
20712;DHT22;10517;50.742;4.224;2022-09-27T05:26:03;10.20;99.90
20712;DHT22;10517;50.742;4.224;2022-09-27T05:28:29;10.20;99.90
20712;DHT22;10517;50.742;4.224;2022-09-27T05:30:55;10.20;99.90
20712;DHT22;10517;50.742;4.224;2022-09-27T05:33:21;10.20;99.90
20712;DHT22;10517;50.742;4.224;2022-09-27T05:35:54;10.20;99.90
20712;DHT22;10517;50.742;4.224;2022-09-27T05:38:20;10.20;99.90
20712;DHT22;10517;50.742;4.224;2022-09-27T05:40:46;10.20;99.90
20712;DHT22;10517;50.742;4.224;2022-09-27T05:43:15;10.20;99.90
20712;DHT22;10517;50.742;4.224;2022-09-27T05:45:40;10.20;99.90
20712;DHT22;10517;50.742;4.224;2022-09-27T05:48:07;10.10;99.90
20712;DHT22;10517;50.742;4.224;2022-09-27T05:50:33;10.10;99.90
20712;DHT22;10517;50.742;4.224;2022-09-27T05:52:59;10.20;99.90
20712;DHT22;10517;50.742;4.224;2022-09-27T05:55:24;10.20;99.90
20712;DHT22;10517;50.742;4.224;2022-09-27T05:58:09;10.20;99.90
20712;DHT22;10517;50.742;4.224;2022-09-27T06:00:36;10.20;99.90
20712;DHT22;10517;50.742;4.224;2022-09-27T06:03:04;10.20;99.90
20712;DHT22;10517;50.742;4.224;2022-09-27T06:05:34;10.20;99.90
20712;DHT22;10517;50.742;4.224;2022-09-27T06:08:03;10.30;99.90
20712;DHT22;10517;50.742;4.224;2022-09-27T06:10:30;10.30;99.90
20712;DHT22;10517;50.742;4.224;2022-09-27T06:13:04;10.20;99.90
20712;DHT22;10517;50.742;4.224;2022-09-27T06:15:32;10.20;99.90
20712;DHT22;10517;50.742;4.224;2022-09-27T06:18:06;10.20;99.90
20712;DHT22;10517;50.742;4.224;2022-09-27T06:20:33;10.20;99.90
20712;DHT22;10517;50.742;4.224;2022-09-27T06:23:10;10.20;99.90
20712;DHT22;10517;50.742;4.224;2022-09-27T06:25:36;10.20;99.90
20712;DHT22;10517;50.742;4.224;2022-09-27T06:28:03;10.20;99.90
20712;DHT22;10517;50.742;4.224;2022-09-27T06:30:29;10.20;99.90
20712;DHT22;10517;50.742;4.224;2022-09-27T06:32:56;10.20;99.90
20712;DHT22;10517;50.742;4.224;2022-09-27T06:35:23;10.20;99.90
20712;DHT22;10517;50.742;4.224;2022-09-27T06:37:50;10.20;99.90
20712;DHT22;10517;50.742;4.224;2022-09-27T06:40:16;10.00;99.90
20712;DHT22;10517;50.742;4.224;2022-09-27T06:42:42;9.90;99.90
20712;DHT22;10517;50.742;4.224;2022-09-27T06:45:08;9.90;99.90
20712;DHT22;10517;50.742;4.224;2022-09-27T06:47:35;9.90;99.90
20712;DHT22;10517;50.742;4.224;2022-09-27T06:50:01;10.00;99.90
20712;DHT22;10517;50.742;4.224;2022-09-27T06:52:31;10.10;99.90
20712;DHT22;10517;50.742;4.224;2022-09-27T06:54:57;10.10;99.90
20712;DHT22;10517;50.742;4.224;2022-09-27T06:57:22;10.20;99.90
20712;DHT22;10517;50.742;4.224;2022-09-27T07:00:09;10.20;99.90
20712;DHT22;10517;50.742;4.224;2022-09-27T07:02:56;10.00;99.90
20712;DHT22;10517;50.742;4.224;2022-09-27T07:05:29;9.80;99.90
20712;DHT22;10517;50.742;4.224;2022-09-27T07:07:58;9.70;99.90
20712;DHT22;10517;50.742;4.224;2022-09-27T07:10:26;9.60;99.90
20712;DHT22;10517;50.742;4.224;2022-09-27T07:12:53;9.50;99.90
20712;DHT22;10517;50.742;4.224;2022-09-27T07:15:19;9.50;99.90
20712;DHT22;10517;50.742;4.224;2022-09-27T07:17:55;9.50;99.90
20712;DHT22;10517;50.742;4.224;2022-09-27T07:20:22;9.60;99.90
20712;DHT22;10517;50.742;4.224;2022-09-27T07:22:48;9.60;99.90
20712;DHT22;10517;50.742;4.224;2022-09-27T07:25:14;9.60;99.90
20712;DHT22;10517;50.742;4.224;2022-09-27T07:27:39;9.60;99.90
20712;DHT22;10517;50.742;4.224;2022-09-27T07:30:09;9.50;99.90
20712;DHT22;10517;50.742;4.224;2022-09-27T07:32:36;9.40;99.90
20712;DHT22;10517;50.742;4.224;2022-09-27T07:35:03;9.40;99.90
20712;DHT22;10517;50.742;4.224;2022-09-27T07:37:34;9.30;99.90
20712;DHT22;10517;50.742;4.224;2022-09-27T07:40:00;9.30;99.90
20712;DHT22;10517;50.742;4.224;2022-09-27T07:42:27;9.50;99.90
20712;DHT22;10517;50.742;4.224;2022-09-27T07:44:56;9.60;99.90
20712;DHT22;10517;50.742;4.224;2022-09-27T07:47:22;9.80;99.90
20712;DHT22;10517;50.742;4.224;2022-09-27T07:49:49;9.90;99.90
20712;DHT22;10517;50.742;4.224;2022-09-27T07:52:17;9.80;99.90
20712;DHT22;10517;50.742;4.224;2022-09-27T07:54:47;9.80;99.90
20712;DHT22;10517;50.742;4.224;2022-09-27T07:57:14;9.70;99.90
20712;DHT22;10517;50.742;4.224;2022-09-27T07:59:40;9.80;99.90
20712;DHT22;10517;50.742;4.224;2022-09-27T08:02:12;9.90;99.90
20712;DHT22;10517;50.742;4.224;2022-09-27T08:04:39;9.90;99.90
20712;DHT22;10517;50.742;4.224;2022-09-27T08:07:05;9.90;99.90
20712;DHT22;10517;50.742;4.224;2022-09-27T08:09:30;10.00;99.90
20712;DHT22;10517;50.742;4.224;2022-09-27T08:11:56;10.00;99.90
20712;DHT22;10517;50.742;4.224;2022-09-27T08:14:22;10.20;99.90
20712;DHT22;10517;50.742;4.224;2022-09-27T08:16:48;10.30;99.90
20712;DHT22;10517;50.742;4.224;2022-09-27T08:19:15;10.30;99.90
20712;DHT22;10517;50.742;4.224;2022-09-27T08:21:41;10.20;99.90
20712;DHT22;10517;50.742;4.224;2022-09-27T08:24:07;10.20;99.90
20712;DHT22;10517;50.742;4.224;2022-09-27T08:26:32;10.30;99.90
20712;DHT22;10517;50.742;4.224;2022-09-27T08:28:58;10.30;99.90
20712;DHT22;10517;50.742;4.224;2022-09-27T08:31:23;10.20;99.90
20712;DHT22;10517;50.742;4.224;2022-09-27T08:33:50;10.30;99.90
20712;DHT22;10517;50.742;4.224;2022-09-27T08:36:17;10.10;99.90
20712;DHT22;10517;50.742;4.224;2022-09-27T08:38:43;10.00;99.90
20712;DHT22;10517;50.742;4.224;2022-09-27T08:41:34;9.90;99.90
20712;DHT22;10517;50.742;4.224;2022-09-27T08:44:26;9.90;99.90
20712;DHT22;10517;50.742;4.224;2022-09-27T08:47:05;9.80;99.90
20712;DHT22;10517;50.742;4.224;2022-09-27T08:49:37;9.70;99.90
20712;DHT22;10517;50.742;4.224;2022-09-27T08:52:10;9.60;99.90
20712;DHT22;10517;50.742;4.224;2022-09-27T08:54:38;9.80;99.90
20712;DHT22;10517;50.742;4.224;2022-09-27T08:57:09;9.80;99.90
20712;DHT22;10517;50.742;4.224;2022-09-27T08:59:41;9.90;99.90
20712;DHT22;10517;50.742;4.224;2022-09-27T09:02:34;10.00;99.90
20712;DHT22;10517;50.742;4.224;2022-09-27T09:05:07;9.80;99.90
20712;DHT22;10517;50.742;4.224;2022-09-27T09:24:08;10.20;99.90
20712;DHT22;10517;50.742;4.224;2022-09-27T09:26:44;10.50;99.90
20712;DHT22;10517;50.742;4.224;2022-09-27T09:29:33;10.60;99.90
20712;DHT22;10517;50.742;4.224;2022-09-27T09:34:35;11.10;99.90
20712;DHT22;10517;50.742;4.224;2022-09-27T09:37:45;11.30;99.90
20712;DHT22;10517;50.742;4.224;2022-09-27T09:40:35;11.70;99.90
20712;DHT22;10517;50.742;4.224;2022-09-27T09:43:27;12.10;99.90
20712;DHT22;10517;50.742;4.224;2022-09-27T09:46:02;12.30;99.90
20712;DHT22;10517;50.742;4.224;2022-09-27T09:48:53;12.40;99.90
20712;DHT22;10517;50.742;4.224;2022-09-27T09:51:26;12.50;99.90
20712;DHT22;10517;50.742;4.224;2022-09-27T09:54:12;12.50;99.90
20712;DHT22;10517;50.742;4.224;2022-09-27T09:57:01;12.60;99.90
20712;DHT22;10517;50.742;4.224;2022-09-27T09:59:35;12.60;99.90
20712;DHT22;10517;50.742;4.224;2022-09-27T10:02:27;12.80;99.90
20712;DHT22;10517;50.742;4.224;2022-09-27T10:04:54;12.50;99.90
20712;DHT22;10517;50.742;4.224;2022-09-27T10:07:21;12.60;99.90
20712;DHT22;10517;50.742;4.224;2022-09-27T10:09:49;12.50;99.90
20712;DHT22;10517;50.742;4.224;2022-09-27T10:12:15;12.50;99.90
20712;DHT22;10517;50.742;4.224;2022-09-27T10:14:43;12.60;99.90
20712;DHT22;10517;50.742;4.224;2022-09-27T10:17:12;12.50;99.90
20712;DHT22;10517;50.742;4.224;2022-09-27T10:19:40;12.50;99.90
20712;DHT22;10517;50.742;4.224;2022-09-27T10:22:13;12.40;99.90
20712;DHT22;10517;50.742;4.224;2022-09-27T10:24:55;12.30;99.90
20712;DHT22;10517;50.742;4.224;2022-09-27T10:27:23;12.00;99.90
20712;DHT22;10517;50.742;4.224;2022-09-27T10:29:56;12.00;99.90
20712;DHT22;10517;50.742;4.224;2022-09-27T10:32:32;12.10;99.90
20712;DHT22;10517;50.742;4.224;2022-09-27T10:40:49;12.40;99.90
20712;DHT22;10517;50.742;4.224;2022-09-27T10:48:45;12.60;99.90
20712;DHT22;10517;50.742;4.224;2022-09-27T10:51:24;12.70;99.90
20712;DHT22;10517;50.742;4.224;2022-09-27T10:53:50;12.70;99.90
20712;DHT22;10517;50.742;4.224;2022-09-27T10:56:22;12.70;99.90
20712;DHT22;10517;50.742;4.224;2022-09-27T10:58:49;12.70;99.90
20712;DHT22;10517;50.742;4.224;2022-09-27T11:01:15;12.70;99.90
20712;DHT22;10517;50.742;4.224;2022-09-27T11:03:56;12.70;99.90
20712;DHT22;10517;50.742;4.224;2022-09-27T11:08:50;12.90;99.90
20712;DHT22;10517;50.742;4.224;2022-09-27T11:14:19;12.00;99.90
20712;DHT22;10517;50.742;4.224;2022-09-27T11:25:01;12.00;99.90
20712;DHT22;10517;50.742;4.224;2022-09-27T11:36:20;12.20;99.90
20712;DHT22;10517;50.742;4.224;2022-09-27T11:41:31;12.00;99.90
20712;DHT22;10517;50.742;4.224;2022-09-27T11:54:58;9.30;99.90
20712;DHT22;10517;50.742;4.224;2022-09-27T11:57:32;9.30;99.90
20712;DHT22;10517;50.742;4.224;2022-09-27T12:00:08;9.40;99.90
20712;DHT22;10517;50.742;4.224;2022-09-27T12:03:12;9.80;99.90
20712;DHT22;10517;50.742;4.224;2022-09-27T12:06:00;10.40;99.90
20712;DHT22;10517;50.742;4.224;2022-09-27T12:08:38;10.80;99.90
20712;DHT22;10517;50.742;4.224;2022-09-27T12:11:28;11.30;99.90
20712;DHT22;10517;50.742;4.224;2022-09-27T12:14:14;11.50;99.90
20712;DHT22;10517;50.742;4.224;2022-09-27T12:16:42;11.60;99.90
20712;DHT22;10517;50.742;4.224;2022-09-27T12:19:27;11.70;99.90
20712;DHT22;10517;50.742;4.224;2022-09-27T12:21:58;11.80;99.90
20712;DHT22;10517;50.742;4.224;2022-09-27T12:24:25;12.00;99.90
20712;DHT22;10517;50.742;4.224;2022-09-27T12:26:58;12.00;99.90
20712;DHT22;10517;50.742;4.224;2022-09-27T12:29:31;12.20;99.90
20712;DHT22;10517;50.742;4.224;2022-09-27T12:32:18;12.70;99.90
20712;DHT22;10517;50.742;4.224;2022-09-27T12:34:54;13.50;99.90
20712;DHT22;10517;50.742;4.224;2022-09-27T12:37:32;13.70;99.90
20712;DHT22;10517;50.742;4.224;2022-09-27T12:40:18;14.00;99.90
20712;DHT22;10517;50.742;4.224;2022-09-27T12:48:46;12.70;99.90
20712;DHT22;10517;50.742;4.224;2022-09-27T12:51:21;12.00;99.90
20712;DHT22;10517;50.742;4.224;2022-09-27T13:07:55;11.90;99.90
20712;DHT22;10517;50.742;4.224;2022-09-27T13:13:35;12.70;99.90
20712;DHT22;10517;50.742;4.224;2022-09-27T13:16:04;13.00;99.90
20712;DHT22;10517;50.742;4.224;2022-09-27T13:18:49;13.30;99.90
20712;DHT22;10517;50.742;4.224;2022-09-27T13:29:50;14.00;99.90
20712;DHT22;10517;50.742;4.224;2022-09-27T13:32:21;14.00;99.90
20712;DHT22;10517;50.742;4.224;2022-09-27T13:34:50;13.60;99.90
20712;DHT22;10517;50.742;4.224;2022-09-27T13:43:00;12.90;99.90
20712;DHT22;10517;50.742;4.224;2022-09-27T13:45:34;12.80;99.90
20712;DHT22;10517;50.742;4.224;2022-09-27T13:48:09;13.00;99.90
20712;DHT22;10517;50.742;4.224;2022-09-27T13:55:53;14.50;99.90
20712;DHT22;10517;50.742;4.224;2022-09-27T13:58:37;16.10;99.90
20712;DHT22;10517;50.742;4.224;2022-09-27T14:01:22;18.50;99.90
20712;DHT22;10517;50.742;4.224;2022-09-27T14:03:52;19.90;99.90
20712;DHT22;10517;50.742;4.224;2022-09-27T14:06:25;19.40;99.90
20712;DHT22;10517;50.742;4.224;2022-09-27T14:08:56;20.30;99.90
20712;DHT22;10517;50.742;4.224;2022-09-27T14:11:43;21.00;99.90
20712;DHT22;10517;50.742;4.224;2022-09-27T14:14:16;22.20;99.90
20712;DHT22;10517;50.742;4.224;2022-09-27T14:16:44;22.80;99.90
20712;DHT22;10517;50.742;4.224;2022-09-27T14:19:14;23.20;99.90
20712;DHT22;10517;50.742;4.224;2022-09-27T14:21:43;23.70;99.90
20712;DHT22;10517;50.742;4.224;2022-09-27T14:24:28;23.70;99.90
20712;DHT22;10517;50.742;4.224;2022-09-27T14:29:44;21.10;99.90
20712;DHT22;10517;50.742;4.224;2022-09-27T14:32:25;19.40;99.90
20712;DHT22;10517;50.742;4.224;2022-09-27T14:38:03;15.40;99.90
20712;DHT22;10517;50.742;4.224;2022-09-27T14:40:33;14.00;99.90
20712;DHT22;10517;50.742;4.224;2022-09-27T14:43:02;13.00;99.90
20712;DHT22;10517;50.742;4.224;2022-09-27T14:47:55;12.40;99.90
20712;DHT22;10517;50.742;4.224;2022-09-27T14:50:26;12.60;99.90
20712;DHT22;10517;50.742;4.224;2022-09-27T14:52:54;12.60;99.90
20712;DHT22;10517;50.742;4.224;2022-09-27T14:55:26;12.70;99.90
20712;DHT22;10517;50.742;4.224;2022-09-27T14:57:58;12.60;99.90
20712;DHT22;10517;50.742;4.224;2022-09-27T15:00:32;12.90;99.90
20712;DHT22;10517;50.742;4.224;2022-09-27T15:03:01;13.50;99.90
20712;DHT22;10517;50.742;4.224;2022-09-27T15:05:31;14.10;99.90
20712;DHT22;10517;50.742;4.224;2022-09-27T15:07:58;14.60;99.90
20712;DHT22;10517;50.742;4.224;2022-09-27T15:10:29;14.30;99.90
20712;DHT22;10517;50.742;4.224;2022-09-27T15:12:58;14.20;99.90
20712;DHT22;10517;50.742;4.224;2022-09-27T15:15:33;14.20;99.90
20712;DHT22;10517;50.742;4.224;2022-09-27T15:18:00;14.30;99.90
20712;DHT22;10517;50.742;4.224;2022-09-27T15:22:58;14.20;99.90
20712;DHT22;10517;50.742;4.224;2022-09-27T15:25:42;14.20;99.90
20712;DHT22;10517;50.742;4.224;2022-09-27T15:28:20;14.40;99.90
20712;DHT22;10517;50.742;4.224;2022-09-27T15:30:56;14.40;99.90
20712;DHT22;10517;50.742;4.224;2022-09-27T15:33:27;14.60;99.90
20712;DHT22;10517;50.742;4.224;2022-09-27T15:35:56;14.70;99.90
20712;DHT22;10517;50.742;4.224;2022-09-27T15:38:30;15.20;99.90
20712;DHT22;10517;50.742;4.224;2022-09-27T15:41:01;15.60;99.90
20712;DHT22;10517;50.742;4.224;2022-09-27T15:43:34;16.50;99.90
20712;DHT22;10517;50.742;4.224;2022-09-27T15:46:03;18.40;99.90
20712;DHT22;10517;50.742;4.224;2022-09-27T15:48:33;20.30;99.90
20712;DHT22;10517;50.742;4.224;2022-09-27T15:51:01;21.90;99.90
20712;DHT22;10517;50.742;4.224;2022-09-27T15:56:03;23.50;99.90
20712;DHT22;10517;50.742;4.224;2022-09-27T15:58:31;23.40;99.90
20712;DHT22;10517;50.742;4.224;2022-09-27T16:01:03;22.30;99.90
20712;DHT22;10517;50.742;4.224;2022-09-27T16:03:30;21.20;99.90
20712;DHT22;10517;50.742;4.224;2022-09-27T16:05:57;20.00;99.90
20712;DHT22;10517;50.742;4.224;2022-09-27T16:08:24;19.20;99.90
20712;DHT22;10517;50.742;4.224;2022-09-27T16:10:52;18.70;99.90
20712;DHT22;10517;50.742;4.224;2022-09-27T16:13:17;18.20;99.90
20712;DHT22;10517;50.742;4.224;2022-09-27T16:15:44;17.60;99.90
20712;DHT22;10517;50.742;4.224;2022-09-27T16:18:10;17.20;99.90
20712;DHT22;10517;50.742;4.224;2022-09-27T16:20:36;16.70;99.90
20712;DHT22;10517;50.742;4.224;2022-09-27T16:23:02;16.60;99.90
20712;DHT22;10517;50.742;4.224;2022-09-27T16:25:28;16.50;99.90
20712;DHT22;10517;50.742;4.224;2022-09-27T16:27:57;16.50;99.90
20712;DHT22;10517;50.742;4.224;2022-09-27T16:30:23;16.30;99.90
20712;DHT22;10517;50.742;4.224;2022-09-27T16:32:49;16.10;99.90
20712;DHT22;10517;50.742;4.224;2022-09-27T16:35:16;16.00;99.90
20712;DHT22;10517;50.742;4.224;2022-09-27T16:37:43;15.60;99.90
20712;DHT22;10517;50.742;4.224;2022-09-27T16:40:09;15.40;99.90
20712;DHT22;10517;50.742;4.224;2022-09-27T16:42:36;15.20;99.90
20712;DHT22;10517;50.742;4.224;2022-09-27T16:45:03;15.00;99.90
20712;DHT22;10517;50.742;4.224;2022-09-27T16:47:30;14.80;99.90
20712;DHT22;10517;50.742;4.224;2022-09-27T16:49:55;14.70;99.90
20712;DHT22;10517;50.742;4.224;2022-09-27T16:52:40;14.60;99.90
20712;DHT22;10517;50.742;4.224;2022-09-27T16:55:08;14.50;99.90
20712;DHT22;10517;50.742;4.224;2022-09-27T16:57:34;14.40;99.90
20712;DHT22;10517;50.742;4.224;2022-09-27T17:00:00;14.30;99.90
20712;DHT22;10517;50.742;4.224;2022-09-27T17:02:26;14.30;99.90
20712;DHT22;10517;50.742;4.224;2022-09-27T17:04:53;14.30;99.90
20712;DHT22;10517;50.742;4.224;2022-09-27T17:07:19;14.20;99.90
20712;DHT22;10517;50.742;4.224;2022-09-27T17:09:45;14.20;99.90
20712;DHT22;10517;50.742;4.224;2022-09-27T17:12:12;14.10;99.90
20712;DHT22;10517;50.742;4.224;2022-09-27T17:14:38;14.00;99.90
20712;DHT22;10517;50.742;4.224;2022-09-27T17:17:03;13.90;99.90
20712;DHT22;10517;50.742;4.224;2022-09-27T17:19:30;13.80;99.90
20712;DHT22;10517;50.742;4.224;2022-09-27T17:21:56;13.70;99.90
20712;DHT22;10517;50.742;4.224;2022-09-27T17:24:22;13.60;99.90
20712;DHT22;10517;50.742;4.224;2022-09-27T17:26:48;13.60;99.90
20712;DHT22;10517;50.742;4.224;2022-09-27T17:29:13;13.60;99.90
20712;DHT22;10517;50.742;4.224;2022-09-27T17:31:40;13.60;99.90
20712;DHT22;10517;50.742;4.224;2022-09-27T17:34:07;13.60;99.90
20712;DHT22;10517;50.742;4.224;2022-09-27T17:36:34;13.60;99.90
20712;DHT22;10517;50.742;4.224;2022-09-27T17:39:02;13.50;99.90
20712;DHT22;10517;50.742;4.224;2022-09-27T17:41:28;13.20;99.90
20712;DHT22;10517;50.742;4.224;2022-09-27T17:43:58;12.90;99.90
20712;DHT22;10517;50.742;4.224;2022-09-27T17:46:29;12.40;99.90
20712;DHT22;10517;50.742;4.224;2022-09-27T17:48:55;12.20;99.90
20712;DHT22;10517;50.742;4.224;2022-09-27T17:51:41;12.10;99.90
20712;DHT22;10517;50.742;4.224;2022-09-27T17:54:08;12.00;99.90
20712;DHT22;10517;50.742;4.224;2022-09-27T17:56:41;11.90;99.90
20712;DHT22;10517;50.742;4.224;2022-09-27T17:59:08;11.80;99.90
20712;DHT22;10517;50.742;4.224;2022-09-27T18:01:34;11.60;99.90
20712;DHT22;10517;50.742;4.224;2022-09-27T18:04:03;11.50;99.90
20712;DHT22;10517;50.742;4.224;2022-09-27T18:06:30;11.30;99.90
20712;DHT22;10517;50.742;4.224;2022-09-27T18:08:55;11.30;99.90
20712;DHT22;10517;50.742;4.224;2022-09-27T18:11:25;11.30;99.90
20712;DHT22;10517;50.742;4.224;2022-09-27T18:13:56;11.40;99.90
20712;DHT22;10517;50.742;4.224;2022-09-27T18:16:25;11.50;99.90
20712;DHT22;10517;50.742;4.224;2022-09-27T18:18:54;11.60;99.90
20712;DHT22;10517;50.742;4.224;2022-09-27T18:21:20;11.60;99.90
20712;DHT22;10517;50.742;4.224;2022-09-27T18:23:49;11.70;99.90
20712;DHT22;10517;50.742;4.224;2022-09-27T18:26:18;11.70;99.90
20712;DHT22;10517;50.742;4.224;2022-09-27T18:28:49;11.70;99.90
20712;DHT22;10517;50.742;4.224;2022-09-27T18:31:16;11.80;99.90
20712;DHT22;10517;50.742;4.224;2022-09-27T18:33:42;11.80;99.90
20712;DHT22;10517;50.742;4.224;2022-09-27T18:36:19;11.80;99.90
20712;DHT22;10517;50.742;4.224;2022-09-27T18:38:50;11.80;99.90
20712;DHT22;10517;50.742;4.224;2022-09-27T18:41:18;11.80;99.90
20712;DHT22;10517;50.742;4.224;2022-09-27T18:43:44;11.70;99.90
20712;DHT22;10517;50.742;4.224;2022-09-27T18:46:14;11.70;99.90